Cloverdale, New Mexico
Current Conditions -  °F | °C
As of 3:55 AM on Friday 31 Oct 2014 (Local Time) from KLSB Reporting Station
Clear Clear  
Wind Chill: 55°   Ceiling: Unl
Heat Index: 55°   Visibility: 10mi
Dew Point: 32°   Wind: 10mph
Humidity: 41%   Direction: 140°SE
Pressure: 30.2"   Gusts: NA
Location:  31.6273°N, 108.641°W
Report Text: KLSB 310955Z AUTO 14009KT 10SM CLR 13/00 A3020 RMK AO2
Loading
Personal Weather Stations






























Interactive Weather Map
Tropical Storm Tracking
New forecast layout! Learn more

10-Day Weather Forecast

Advertisements
Track Severe Weather on mobile